Time;durP1;ratioP1;P1;durP2;ratioP2;P2;SDS_P1;SDS_P2;PMS_P1;PMS_P2;Temp;Humidity;BMP_temperature;BMP_pressure;BME280_temperature;BME280_humidity;BME280_pressure;Samples;Min_cycle;Max_cycle;Signal;HPM_P1;HPM_P2
2023/09/21 00:00:57;;;;;;;13.20;4.10;;;22.50;87.30;;;;;;5010555;28;20065;-52
2023/09/21 00:03:24;;;;;;;16.52;4.03;;;22.50;87.40;;;;;;5027813;28;20022;-52
2023/09/21 00:05:51;;;;;;;20.05;3.75;;;22.50;87.50;;;;;;5026436;28;20061;-52
2023/09/21 00:08:17;;;;;;;16.10;3.50;;;22.50;87.50;;;;;;5026487;28;20101;-52
2023/09/21 00:10:42;;;;;;;14.65;3.80;;;22.50;87.60;;;;;;5028153;28;20031;-52
2023/09/21 00:13:08;;;;;;;17.88;3.75;;;22.40;87.70;;;;;;5026596;28;20033;-52
2023/09/21 00:15:34;;;;;;;14.68;3.60;;;22.40;87.70;;;;;;5026405;28;20034;-52
2023/09/21 00:18:00;;;;;;;12.07;3.40;;;22.50;87.90;;;;;;5027881;28;20014;-52
2023/09/21 00:20:29;;;;;;;11.25;3.65;;;22.40;88.00;;;;;;5027653;28;20030;-52
2023/09/21 00:22:55;;;;;;;14.68;3.47;;;22.40;88.10;;;;;;5026712;28;20029;-52
2023/09/21 00:25:22;;;;;;;13.02;3.42;;;22.40;88.10;;;;;;5010137;28;20037;-52
2023/09/21 00:27:48;;;;;;;16.83;3.60;;;22.40;88.30;;;;;;5010304;28;20050;-52
2023/09/21 00:30:14;;;;;;;12.05;3.92;;;22.40;88.90;;;;;;5026145;28;20327;-52
2023/09/21 00:32:40;;;;;;;17.13;3.80;;;22.40;88.10;;;;;;5009839;28;20166;-52
2023/09/21 00:35:09;;;;;;;17.95;3.88;;;22.30;88.10;;;;;;5027653;28;20438;-52
2023/09/21 00:37:38;;;;;;;12.65;3.33;;;22.30;88.10;;;;;;5026361;28;20605;-52
2023/09/21 00:40:15;;;;;;;7.95;2.92;;;22.30;88.20;;;;;;5026087;28;20037;-52
2023/09/21 00:42:41;;;;;;;12.05;3.40;;;22.30;88.20;;;;;;5010840;28;20061;-51
2023/09/21 00:45:08;;;;;;;13.68;3.80;;;22.30;88.30;;;;;;5009543;28;20120;-52
2023/09/21 00:47:35;;;;;;;11.50;3.40;;;22.30;88.30;;;;;;5025920;28;20022;-52
2023/09/21 00:50:06;;;;;;;11.25;2.95;;;22.30;88.30;;;;;;5026000;28;20037;-52
2023/09/21 00:52:32;;;;;;;6.72;3.10;;;22.30;88.30;;;;;;5010399;28;20066;-52
2023/09/21 00:54:57;;;;;;;10.55;3.15;;;22.30;88.40;;;;;;5010178;28;20042;-52
2023/09/21 00:57:24;;;;;;;10.05;2.90;;;22.30;88.40;;;;;;5027183;28;20098;-52
2023/09/21 00:59:49;;;;;;;13.95;2.80;;;22.20;88.40;;;;;;5009648;28;20537;-52
2023/09/21 01:02:15;;;;;;;10.15;3.25;;;22.20;88.50;;;;;;5027256;28;20030;-52
2023/09/21 01:04:41;;;;;;;9.77;3.17;;;22.20;88.50;;;;;;5028268;28;20527;-52
2023/09/21 01:07:17;;;;;;;8.85;3.22;;;22.20;88.60;;;;;;5030019;28;20022;-51
2023/09/21 01:09:43;;;;;;;11.90;3.22;;;22.20;88.70;;;;;;5029329;28;20030;-52
2023/09/21 01:12:10;;;;;;;7.45;2.72;;;22.10;88.80;;;;;;5010955;28;20057;-52
2023/09/21 01:14:37;;;;;;;7.57;2.53;;;22.10;88.90;;;;;;5025587;28;20034;-52
2023/09/21 01:17:02;;;;;;;5.65;2.67;;;22.10;88.90;;;;;;5025667;28;20041;-52
2023/09/21 01:19:28;;;;;;;6.70;2.72;;;22.10;88.90;;;;;;5026472;28;20034;-52
2023/09/21 01:21:54;;;;;;;10.02;2.20;;;22.10;88.80;;;;;;5008683;28;20030;-52
2023/09/21 01:24:23;;;;;;;6.45;2.92;;;22.10;88.80;;;;;;5008901;28;20036;-52
2023/09/21 01:26:48;;;;;;;8.32;2.70;;;22.10;88.80;;;;;;5026889;28;20049;-52
2023/09/21 01:29:14;;;;;;;6.75;2.78;;;22.10;88.90;;;;;;5025535;28;20053;-52
2023/09/21 01:31:40;;;;;;;10.82;3.13;;;22.10;88.80;;;;;;5026859;28;20026;-50
2023/09/21 01:34:05;;;;;;;8.10;2.65;;;22.00;88.80;;;;;;5026881;28;20597;-52
2023/09/21 01:36:32;;;;;;;7.00;2.40;;;22.00;88.90;;;;;;5025529;28;20045;-52
2023/09/21 01:38:58;;;;;;;12.27;2.53;;;22.10;89.00;;;;;;5025738;28;20093;-52
2023/09/21 01:41:24;;;;;;;6.75;2.50;;;22.00;89.00;;;;;;5009332;28;20049;-52
2023/09/21 01:43:49;;;;;;;7.53;2.22;;;22.00;89.00;;;;;;5027273;28;20385;-52
2023/09/21 01:46:21;;;;;;;6.85;2.40;;;22.00;89.20;;;;;;5025866;28;20092;-52
2023/09/21 01:48:46;;;;;;;6.20;2.58;;;22.00;89.30;;;;;;5009954;28;20068;-52
2023/09/21 01:51:12;;;;;;;7.55;2.50;;;22.00;89.30;;;;;;5009631;28;20022;-52
2023/09/21 01:53:38;;;;;;;6.68;2.40;;;21.90;89.40;;;;;;5028094;28;20022;-52
2023/09/21 01:56:04;;;;;;;4.85;2.40;;;21.90;89.40;;;;;;5009452;28;20531;-52
2023/09/21 01:58:30;;;;;;;6.32;2.40;;;21.90;89.40;;;;;;5026130;28;20026;-52
2023/09/21 02:00:55;;;;;;;7.97;2.42;;;21.90;89.50;;;;;;5024940;28;20041;-52
2023/09/21 02:03:27;;;;;;;3.92;2.17;;;21.90;89.60;;;;;;5025160;28;20026;-52
2023/09/21 02:05:53;;;;;;;6.15;2.28;;;21.90;89.70;;;;;;5009760;28;20045;-52
2023/09/21 02:08:18;;;;;;;6.75;2.47;;;21.90;89.80;;;;;;5025041;28;20022;-52
2023/09/21 02:10:44;;;;;;;6.20;2.35;;;21.90;89.90;;;;;;5026838;28;20026;-52
2023/09/21 02:13:09;;;;;;;7.90;2.20;;;21.90;90.00;;;;;;5028915;28;20026;-52
2023/09/21 02:15:39;;;;;;;7.15;2.40;;;21.80;90.00;;;;;;5012484;28;20026;-52
2023/09/21 02:18:06;;;;;;;8.55;2.47;;;21.80;90.00;;;;;;5012846;28;20496;-52
2023/09/21 02:20:32;;;;;;;5.85;2.53;;;21.80;90.00;;;;;;5028690;28;20045;-52
2023/09/21 02:22:59;;;;;;;7.85;2.33;;;21.80;90.00;;;;;;5028600;28;20022;-52
2023/09/21 02:25:25;;;;;;;4.75;2.75;;;21.80;90.00;;;;;;5028460;28;20041;-52
2023/09/21 02:27:50;;;;;;;7.85;2.88;;;21.80;90.00;;;;;;5029729;28;20097;-52
2023/09/21 02:30:21;;;;;;;7.20;2.65;;;21.80;90.00;;;;;;5028533;28;20030;-52
2023/09/21 02:32:50;;;;;;;7.30;2.80;;;21.80;90.10;;;;;;5012566;28;20044;-52
2023/09/21 02:35:17;;;;;;;7.72;2.65;;;21.80;90.10;;;;;;5028371;28;20148;-52
2023/09/21 02:37:46;;;;;;;4.63;2.53;;;21.80;90.20;;;;;;5029545;28;20076;-52
2023/09/21 02:40:16;;;;;;;4.85;2.40;;;21.80;90.20;;;;;;5012078;28;20034;-52
2023/09/21 02:42:46;;;;;;;6.07;2.78;;;21.70;90.20;;;;;;5028193;28;20030;-52
2023/09/21 02:45:12;;;;;;;5.68;2.33;;;21.70;90.20;;;;;;5012024;28;20044;-52
2023/09/21 02:47:41;;;;;;;6.72;2.70;;;21.70;90.20;;;;;;5012305;28;20030;-52
2023/09/21 02:50:25;;;;;;;5.97;2.60;;;21.70;90.20;;;;;;5028188;28;20060;-52
2023/09/21 02:53:05;;;;;;;8.60;3.45;;;21.70;90.30;;;;;;5029544;28;20037;-52
2023/09/21 02:55:33;;;;;;;6.28;3.45;;;21.70;90.60;;;;;;5028288;28;20038;-52
2023/09/21 02:58:10;;;;;;;6.22;3.38;;;21.70;90.60;;;;;;5028127;28;20096;-52
2023/09/21 03:00:45;;;;;;;7.07;3.22;;;21.70;90.40;;;;;;4996405;28;20044;-52
2023/09/21 03:03:15;;;;;;;7.88;3.22;;;21.70;90.30;;;;;;5028185;28;20018;-52
2023/09/21 03:05:47;;;;;;;5.95;3.25;;;21.70;90.30;;;;;;5029310;28;20026;-51
2023/09/21 03:08:13;;;;;;;5.93;2.90;;;21.70;90.40;;;;;;5027942;28;20034;-52
2023/09/21 03:10:47;;;;;;;7.20;3.30;;;21.70;90.40;;;;;;5011344;28;20022;-52
2023/09/21 03:13:19;;;;;;;7.45;3.08;;;21.60;90.40;;;;;;5027708;28;20036;-52
2023/09/21 03:15:47;;;;;;;4.55;2.55;;;21.70;90.50;;;;;;5027831;28;20378;-52
2023/09/21 03:18:15;;;;;;;6.47;2.55;;;21.70;90.60;;;;;;5027879;28;20034;-52
2023/09/21 03:20:43;;;;;;;4.10;2.78;;;21.70;90.60;;;;;;5027509;28;20030;-52
2023/09/21 03:23:09;;;;;;;9.35;2.65;;;21.60;90.60;;;;;;5010462;28;20034;-52
2023/09/21 03:25:40;;;;;;;4.68;2.67;;;21.60;90.60;;;;;;5010913;28;20093;-52
2023/09/21 03:28:10;;;;;;;4.82;2.83;;;21.60;90.60;;;;;;5012012;28;20033;-52
2023/09/21 03:30:38;;;;;;;7.47;2.85;;;21.60;90.60;;;;;;5028462;28;20148;-52
2023/09/21 03:33:05;;;;;;;7.65;2.65;;;21.60;90.70;;;;;;5028645;28;20090;-52
2023/09/21 03:35:31;;;;;;;6.45;2.80;;;21.60;90.80;;;;;;5027302;28;20037;-52
2023/09/21 03:37:57;;;;;;;4.20;2.50;;;21.60;90.70;;;;;;5027474;28;20045;-52
2023/09/21 03:40:25;;;;;;;8.80;2.95;;;21.60;90.70;;;;;;5027233;28;20038;-53
2023/09/21 03:42:51;;;;;;;5.35;2.85;;;21.60;90.70;;;;;;5010978;28;20038;-52
2023/09/21 03:45:20;;;;;;;5.22;2.60;;;21.60;91.10;;;;;;5010965;28;20038;-52
2023/09/21 03:47:46;;;;;;;5.43;2.55;;;21.60;90.80;;;;;;5028214;28;20018;-52
2023/09/21 03:50:12;;;;;;;6.07;2.83;;;21.60;90.90;;;;;;5028336;28;20036;-52
2023/09/21 03:52:39;;;;;;;5.18;2.60;;;21.60;90.90;;;;;;5010561;28;20108;-52
2023/09/21 03:55:07;;;;;;;5.32;2.85;;;21.50;90.90;;;;;;5026709;28;20037;-52
2023/09/21 03:57:33;;;;;;;5.72;2.80;;;21.50;90.90;;;;;;5028164;28;20033;-52
2023/09/21 03:59:59;;;;;;;4.82;3.38;;;21.50;90.90;;;;;;5028021;28;20034;-52
2023/09/21 04:02:25;;;;;;;7.55;3.47;;;21.50;90.90;;;;;;5010688;28;20022;-52
2023/09/21 04:04:51;;;;;;;7.05;3.95;;;21.50;90.90;;;;;;5028044;28;20049;-52
2023/09/21 04:07:17;;;;;;;8.48;3.38;;;21.50;91.00;;;;;;5010581;28;20025;-52
2023/09/21 04:09:44;;;;;;;8.98;3.40;;;21.50;91.00;;;;;;5026579;28;20072;-52
2023/09/21 04:12:10;;;;;;;6.32;3.22;;;21.50;91.00;;;;;;5027902;28;20036;-52
2023/09/21 04:14:36;;;;;;;5.57;2.92;;;21.50;91.00;;;;;;5026702;28;20037;-52
2023/09/21 04:17:02;;;;;;;7.97;3.05;;;21.50;91.00;;;;;;5026609;28;20470;-52
2023/09/21 04:19:28;;;;;;;7.30;3.60;;;21.40;91.00;;;;;;5027787;28;20030;-52
2023/09/21 04:21:54;;;;;;;10.32;3.22;;;21.50;91.10;;;;;;5026518;28;20037;-52
2023/09/21 04:24:20;;;;;;;8.48;3.75;;;21.40;91.10;;;;;;5026222;28;20042;-52
2023/09/21 04:26:45;;;;;;;16.00;4.18;;;21.40;91.10;;;;;;5026317;28;20026;-52
2023/09/21 04:29:15;;;;;;;18.40;5.03;;;21.40;91.10;;;;;;5027575;28;20034;-52
2023/09/21 04:31:41;;;;;;;37.90;7.35;;;21.40;91.10;;;;;;5010685;28;20018;-52
2023/09/21 04:34:06;;;;;;;60.55;8.98;;;21.40;91.10;;;;;;5026117;28;20041;-52
2023/09/21 04:36:32;;;;;;;39.13;7.93;;;21.40;91.20;;;;;;5026069;28;20075;-52
2023/09/21 04:38:59;;;;;;;28.88;7.13;;;21.40;91.20;;;;;;5026184;28;20072;-52
2023/09/21 04:41:27;;;;;;;33.25;7.13;;;21.40;91.20;;;;;;5027086;28;20030;-52
2023/09/21 04:43:53;;;;;;;33.47;7.82;;;21.30;91.20;;;;;;5026026;28;20022;-52
2023/09/21 04:46:19;;;;;;;51.35;9.18;;;21.40;91.20;;;;;;5026058;28;20018;-52
2023/09/21 04:48:45;;;;;;;38.45;8.45;;;21.40;91.20;;;;;;5026997;28;20072;-52
2023/09/21 04:51:14;;;;;;;67.15;12.00;;;21.40;91.30;;;;;;5025983;28;20030;-52
2023/09/21 04:53:40;;;;;;;67.35;11.65;;;21.40;91.30;;;;;;5025744;28;20056;-52
2023/09/21 04:56:05;;;;;;;50.90;10.73;;;21.40;91.30;;;;;;5025946;28;20104;-52
2023/09/21 04:58:31;;;;;;;61.17;10.00;;;21.40;91.30;;;;;;5009503;28;20085;-52
2023/09/21 05:00:57;;;;;;;59.10;10.60;;;21.40;91.40;;;;;;5025538;28;20044;-52
2023/09/21 05:03:22;;;;;;;60.50;9.60;;;21.30;91.30;;;;;;5025664;28;20493;-56
2023/09/21 05:05:49;;;;;;;65.05;11.18;;;21.30;91.40;;;;;;5025493;28;20060;-55
2023/09/21 05:08:14;;;;;;;57.72;11.10;;;21.30;91.40;;;;;;5025535;28;20041;-55
2023/09/21 05:10:43;;;;;;;43.22;9.65;;;21.30;91.40;;;;;;5026900;28;20030;-55
2023/09/21 05:13:08;;;;;;;83.05;12.73;;;21.40;91.40;;;;;;5025703;28;20030;-55
2023/09/21 05:15:34;;;;;;;58.67;11.18;;;21.30;91.50;;;;;;5026760;28;20098;-55
2023/09/21 05:18:00;;;;;;;52.80;11.85;;;21.30;91.50;;;;;;5025371;28;20068;-56
2023/09/21 05:20:26;;;;;;;80.55;12.00;;;21.30;91.40;;;;;;5025404;28;20474;-55
2023/09/21 05:22:51;;;;;;;50.50;10.18;;;21.30;91.40;;;;;;5025279;28;20061;-55
2023/09/21 05:25:17;;;;;;;68.35;11.93;;;21.30;91.40;;;;;;5026458;28;20048;-55
2023/09/21 05:27:43;;;;;;;106.40;17.45;;;21.40;91.50;;;;;;5026590;28;20083;-55
2023/09/21 05:30:09;;;;;;;138.40;20.95;;;21.30;91.50;;;;;;5025289;28;20113;-55
2023/09/21 05:32:35;;;;;;;91.95;15.85;;;21.30;91.60;;;;;;5025361;28;20106;-55
2023/09/21 05:35:02;;;;;;;142.45;19.50;;;21.30;91.60;;;;;;4992927;28;20049;-52
2023/09/21 05:37:29;;;;;;;118.70;19.52;;;21.30;91.60;;;;;;5008777;28;20022;-52
2023/09/21 05:39:54;;;;;;;103.30;17.13;;;21.30;91.70;;;;;;5025074;28;20156;-52
2023/09/21 05:42:23;;;;;;;158.05;23.40;;;21.30;91.60;;;;;;5025446;28;20034;-52
2023/09/21 05:44:49;;;;;;;119.28;18.95;;;21.30;91.60;;;;;;5023709;28;20053;-52
2023/09/21 05:47:15;;;;;;;113.55;17.10;;;21.30;91.70;;;;;;5025556;28;20478;-52
2023/09/21 05:49:41;;;;;;;85.68;15.88;;;21.30;91.80;;;;;;5026187;28;20034;-52
2023/09/21 05:52:12;;;;;;;81.93;15.18;;;21.30;91.80;;;;;;5026154;28;20524;-52
2023/09/21 05:54:42;;;;;;;84.97;15.75;;;21.30;91.80;;;;;;5025100;28;20030;-52
2023/09/21 05:57:07;;;;;;;94.22;15.05;;;21.30;91.80;;;;;;5026237;28;20029;-52
2023/09/21 05:59:33;;;;;;;101.03;16.02;;;21.30;91.80;;;;;;5024506;28;20034;-52
2023/09/21 06:01:59;;;;;;;85.95;13.57;;;21.30;91.90;;;;;;5021346;28;20053;-52
2023/09/21 06:04:25;;;;;;;80.03;12.43;;;21.30;91.90;;;;;;5018532;28;20034;-52
2023/09/21 06:06:56;;;;;;;63.65;11.90;;;21.30;92.30;;;;;;5031010;28;20018;-52
2023/09/21 06:09:24;;;;;;;77.28;12.50;;;21.30;92.40;;;;;;5023941;28;20339;-52
2023/09/21 06:11:50;;;;;;;64.13;10.52;;;21.20;92.50;;;;;;5021971;28;20033;-52
2023/09/21 06:14:19;;;;;;;56.22;10.80;;;21.20;92.70;;;;;;5005236;28;20034;-52
2023/09/21 06:16:45;;;;;;;52.97;10.23;;;21.10;92.80;;;;;;5023278;28;20044;-52
2023/09/21 06:19:13;;;;;;;34.63;9.02;;;21.10;92.90;;;;;;5007392;28;20062;-52
2023/09/21 06:21:39;;;;;;;58.13;10.05;;;21.10;93.00;;;;;;5023637;28;20026;-52
2023/09/21 06:24:09;;;;;;;47.97;9.45;;;21.00;93.10;;;;;;5018794;28;20035;-52
2023/09/21 06:26:35;;;;;;;44.60;9.02;;;21.00;93.20;;;;;;5021358;28;20029;-52
2023/09/21 06:29:00;;;;;;;36.38;8.30;;;21.00;93.30;;;;;;5021964;28;20026;-52
2023/09/21 06:31:27;;;;;;;43.05;8.73;;;21.00;93.40;;;;;;4991040;28;20097;-52
2023/09/21 06:33:57;;;;;;;43.60;9.05;;;21.00;93.50;;;;;;5023855;28;20041;-52
2023/09/21 06:36:23;;;;;;;38.60;8.65;;;21.00;93.60;;;;;;5024545;28;20026;-52
2023/09/21 06:38:50;;;;;;;36.15;7.85;;;21.00;93.70;;;;;;5024261;28;20044;-52
2023/09/21 06:41:15;;;;;;;27.90;8.07;;;21.00;93.70;;;;;;5008397;28;20064;-52
2023/09/21 06:43:42;;;;;;;41.97;7.70;;;21.00;93.70;;;;;;5019713;28;20019;-52
2023/09/21 06:46:11;;;;;;;28.92;7.05;;;21.00;93.80;;;;;;5014571;28;20021;-52
2023/09/21 06:48:37;;;;;;;29.38;6.93;;;20.90;93.70;;;;;;5035320;28;20034;-52
2023/09/21 06:51:07;;;;;;;25.63;6.43;;;21.00;93.90;;;;;;5019735;28;20104;-52
2023/09/21 06:53:34;;;;;;;38.90;6.88;;;21.00;93.90;;;;;;5027010;28;20030;-53
2023/09/21 06:56:00;;;;;;;30.42;6.80;;;21.00;94.00;;;;;;5030414;28;20026;-51
2023/09/21 06:58:25;;;;;;;32.40;7.60;;;21.00;94.10;;;;;;5003328;28;20057;-52
2023/09/21 07:00:51;;;;;;;34.33;7.20;;;21.00;94.10;;;;;;5014276;28;20026;-52
2023/09/21 07:03:18;;;;;;;34.80;7.00;;;21.00;94.40;;;;;;5023110;28;20038;-52
2023/09/21 07:05:45;;;;;;;46.13;8.20;;;21.00;94.20;;;;;;5041962;28;20034;-52
2023/09/21 07:08:11;;;;;;;45.72;7.88;;;21.00;94.30;;;;;;5027247;28;20058;-52
2023/09/21 07:10:36;;;;;;;39.38;7.25;;;21.00;94.40;;;;;;5027353;28;20026;-52
2023/09/21 07:13:03;;;;;;;44.10;8.15;;;21.00;94.30;;;;;;5042175;28;20033;-52
2023/09/21 07:15:29;;;;;;;38.13;8.15;;;21.00;94.40;;;;;;5009569;28;20026;-52
2023/09/21 07:17:56;;;;;;;41.90;9.20;;;21.10;94.40;;;;;;5030481;28;20030;-52
2023/09/21 07:20:23;;;;;;;44.92;9.10;;;21.00;94.50;;;;;;5022883;28;20087;-51
2023/09/21 07:22:49;;;;;;;65.60;9.75;;;21.10;94.60;;;;;;5022094;28;20036;-52
2023/09/21 07:25:15;;;;;;;44.05;8.25;;;21.10;94.60;;;;;;5027753;28;20121;-52
2023/09/21 07:27:42;;;;;;;49.25;8.20;;;21.10;94.50;;;;;;5024981;28;20041;-52
2023/09/21 07:30:08;;;;;;;49.58;8.48;;;21.10;94.60;;;;;;5004479;28;20030;-52
2023/09/21 07:32:35;;;;;;;56.88;8.88;;;21.10;94.60;;;;;;5022050;28;20109;-53
2023/09/21 07:35:04;;;;;;;77.75;9.77;;;21.10;94.70;;;;;;5037486;28;20030;-52
2023/09/21 07:37:30;;;;;;;46.65;9.40;;;21.20;94.60;;;;;;5035673;28;20057;-52
2023/09/21 07:39:56;;;;;;;48.33;8.57;;;21.20;94.50;;;;;;5018306;28;20049;-54
2023/09/21 07:42:22;;;;;;;61.55;9.95;;;21.20;94.60;;;;;;5019043;28;20041;-52
2023/09/21 07:44:48;;;;;;;61.70;9.48;;;21.30;94.60;;;;;;5020612;28;20664;-52
2023/09/21 07:47:14;;;;;;;82.82;10.60;;;21.30;94.60;;;;;;5021020;28;20029;-52
2023/09/21 07:49:39;;;;;;;59.28;9.88;;;21.30;94.40;;;;;;5047576;28;20778;-52
2023/09/21 07:52:07;;;;;;;62.20;10.77;;;21.30;94.40;;;;;;5016748;28;20034;-52
2023/09/21 07:54:33;;;;;;;58.80;9.88;;;21.30;94.40;;;;;;5035745;28;20037;-52
2023/09/21 07:56:59;;;;;;;53.20;8.75;;;21.40;94.40;;;;;;5040530;28;20030;-52
2023/09/21 07:59:25;;;;;;;46.15;9.65;;;21.40;94.40;;;;;;5038915;28;20092;-52
2023/09/21 08:01:53;;;;;;;58.97;9.95;;;21.40;94.40;;;;;;5018711;28;20425;-52
2023/09/21 08:04:20;;;;;;;63.97;10.35;;;21.40;94.30;;;;;;5018619;28;20026;-52
2023/09/21 08:06:45;;;;;;;56.10;9.57;;;21.40;94.30;;;;;;5048857;28;21472;-52
2023/09/21 08:09:13;;;;;;;68.32;11.35;;;21.40;94.30;;;;;;5049339;28;20026;-52
2023/09/21 08:11:39;;;;;;;97.60;13.57;;;21.50;94.40;;;;;;5025418;28;20048;-53
2023/09/21 08:14:04;;;;;;;147.95;17.55;;;21.50;94.70;;;;;;5025041;28;20050;-52
2023/09/21 08:16:30;;;;;;;100.45;13.90;;;21.50;94.70;;;;;;4996091;28;20061;-52
2023/09/21 08:18:58;;;;;;;82.57;13.10;;;21.50;94.80;;;;;;5025772;28;20041;-52
2023/09/21 08:21:23;;;;;;;109.35;14.70;;;21.50;94.70;;;;;;5025275;28;20049;-52
2023/09/21 08:23:49;;;;;;;85.97;11.60;;;21.50;94.70;;;;;;5022337;28;20045;-52
2023/09/21 08:26:14;;;;;;;75.55;10.55;;;21.50;94.50;;;;;;5017079;28;20849;-52
2023/09/21 08:28:40;;;;;;;57.05;10.02;;;21.50;94.50;;;;;;5023698;28;20483;-52
2023/09/21 08:31:09;;;;;;;66.57;10.90;;;21.50;94.50;;;;;;5009089;28;20348;-52
2023/09/21 08:33:35;;;;;;;78.78;11.93;;;21.60;94.60;;;;;;5023374;28;20109;-52
2023/09/21 08:36:00;;;;;;;85.15;11.80;;;21.60;94.60;;;;;;5055671;28;20026;-52
2023/09/21 08:38:26;;;;;;;65.20;10.95;;;21.60;94.70;;;;;;5044374;28;20026;-52
2023/09/21 08:40:52;;;;;;;89.80;11.43;;;21.60;94.80;;;;;;5022906;28;20104;-52
2023/09/21 08:43:22;;;;;;;83.10;10.38;;;21.60;94.80;;;;;;5009991;28;20048;-52
2023/09/21 08:45:49;;;;;;;89.65;10.20;;;21.60;94.60;;;;;;5023905;28;20048;-52
2023/09/21 08:48:17;;;;;;;70.57;10.32;;;21.60;94.50;;;;;;5035736;28;20021;-53
2023/09/21 08:50:43;;;;;;;60.25;9.93;;;21.60;94.40;;;;;;5024332;28;20026;-52
2023/09/21 08:53:11;;;;;;;58.83;9.88;;;21.60;94.40;;;;;;5015244;28;20136;-52
2023/09/21 08:55:37;;;;;;;60.22;9.70;;;21.60;94.30;;;;;;5032884;28;20616;-53
2023/09/21 08:58:04;;;;;;;77.45;8.52;;;21.60;94.20;;;;;;5039533;28;20685;-52
2023/09/21 09:00:29;;;;;;;67.43;10.38;;;21.60;94.10;;;;;;5044303;28;20053;-52
2023/09/21 09:02:55;;;;;;;64.15;8.82;;;21.70;94.10;;;;;;5025706;28;20485;-52
2023/09/21 09:05:21;;;;;;;63.20;9.93;;;21.70;94.00;;;;;;5023232;28;20374;-52
2023/09/21 09:07:47;;;;;;;56.50;8.07;;;21.70;93.90;;;;;;5004176;28;20033;-52
2023/09/21 09:10:13;;;;;;;52.78;7.63;;;21.70;93.90;;;;;;5026677;28;20053;-52
2023/09/21 09:12:39;;;;;;;48.63;7.82;;;21.70;93.90;;;;;;5008607;28;20037;-52
2023/09/21 09:15:05;;;;;;;41.33;8.05;;;21.70;93.80;;;;;;5015737;28;20025;-52
2023/09/21 09:17:32;;;;;;;57.20;7.57;;;21.70;93.70;;;;;;5025237;28;20029;-52
2023/09/21 09:19:58;;;;;;;37.65;7.70;;;21.80;94.00;;;;;;5033422;28;20034;-51
2023/09/21 09:22:23;;;;;;;39.60;7.85;;;21.70;93.70;;;;;;5031509;28;20036;-52
2023/09/21 09:24:49;;;;;;;52.13;7.25;;;21.70;93.50;;;;;;5024738;28;20041;-52
2023/09/21 09:27:15;;;;;;;32.95;6.25;;;21.70;93.50;;;;;;5008389;28;20071;-52
2023/09/21 09:29:48;;;;;;;32.42;6.28;;;21.80;93.40;;;;;;5013855;28;20031;-52
2023/09/21 09:32:22;;;;;;;33.38;6.93;;;21.80;93.30;;;;;;5042798;28;20026;-52
2023/09/21 09:34:48;;;;;;;49.45;8.57;;;21.80;93.20;;;;;;5023967;28;20030;-52
2023/09/21 09:37:16;;;;;;;45.63;8.23;;;21.80;93.30;;;;;;5013722;28;20110;-52
2023/09/21 09:39:45;;;;;;;35.55;7.35;;;21.80;93.20;;;;;;5028098;28;20029;-52
2023/09/21 09:42:14;;;;;;;52.60;8.20;;;21.80;93.10;;;;;;5046010;28;20025;-52
2023/09/21 09:44:49;;;;;;;43.47;8.13;;;21.90;93.10;;;;;;5044767;28;20500;-52
2023/09/21 09:47:18;;;;;;;58.58;9.07;;;21.90;93.10;;;;;;5036876;28;20029;-52
2023/09/21 09:49:48;;;;;;;56.38;9.10;;;21.90;93.00;;;;;;5023129;28;20061;-52
2023/09/21 09:52:13;;;;;;;57.30;8.88;;;21.90;93.00;;;;;;5039663;28;20481;-52
2023/09/21 09:54:39;;;;;;;59.33;8.73;;;21.90;93.00;;;;;;5023862;28;20096;-53
2023/09/21 09:57:11;;;;;;;64.78;9.63;;;22.00;93.00;;;;;;5041674;28;20022;-52
2023/09/21 09:59:36;;;;;;;60.65;7.75;;;22.00;93.00;;;;;;5040289;28;20040;-52
2023/09/21 10:02:03;;;;;;;42.53;6.72;;;22.00;92.90;;;;;;5013108;28;20117;-52
2023/09/21 10:04:33;;;;;;;44.20;7.15;;;22.00;92.60;;;;;;5015923;28;20481;-52
2023/09/21 10:06:58;;;;;;;62.33;7.50;;;22.10;92.50;;;;;;5026386;28;20032;-52
2023/09/21 10:09:27;;;;;;;52.60;8.40;;;22.10;92.30;;;;;;5043222;28;20100;-52
2023/09/21 10:11:53;;;;;;;42.72;6.55;;;22.20;92.10;;;;;;5044122;28;20053;-52
2023/09/21 10:14:19;;;;;;;35.10;6.22;;;22.20;91.90;;;;;;5044100;28;20037;-52
2023/09/21 10:16:55;;;;;;;58.03;7.47;;;22.20;91.60;;;;;;5044298;28;20093;-52
2023/09/21 10:19:26;;;;;;;;;;;22.30;91.50;;;;;;5044447;28;20029;-52
2023/09/21 10:22:03;;;;;;;30.65;6.13;;;22.30;91.50;;;;;;5060311;28;19913;-52
2023/09/21 10:24:29;;;;;;;34.60;6.47;;;22.30;91.40;;;;;;5044029;28;20037;-52
2023/09/21 10:26:58;;;;;;;33.53;5.35;;;22.20;91.30;;;;;;5027563;28;20022;-52
2023/09/21 10:29:36;;;;;;;24.85;5.78;;;22.30;91.20;;;;;;5045391;28;20037;-52
2023/09/21 10:32:05;;;;;;;24.58;5.80;;;22.40;91.10;;;;;;5046485;28;20549;-52
2023/09/21 10:34:31;;;;;;;17.20;4.95;;;22.40;91.00;;;;;;5047878;28;20033;-52
2023/09/21 10:37:10;;;;;;;38.38;6.15;;;22.40;90.90;;;;;;5047957;28;20112;-52
2023/09/21 10:39:36;;;;;;;23.63;4.93;;;22.40;90.70;;;;;;5048004;28;20109;-52
2023/09/21 10:42:04;;;;;;;27.40;5.22;;;22.40;90.60;;;;;;5049142;28;20045;-52
2023/09/21 10:45:05;;;;;;;34.33;6.03;;;22.50;90.50;;;;;;5048858;28;20037;-53
2023/09/21 10:47:41;;;;;;;25.90;5.00;;;22.50;90.50;;;;;;5049276;28;20048;-52
2023/09/21 10:50:14;;;;;;;31.25;5.25;;;22.60;90.40;;;;;;5047922;28;20081;-52
2023/09/21 10:52:44;;;;;;;28.88;5.88;;;22.60;90.30;;;;;;5048057;28;20033;-52
2023/09/21 10:55:15;;;;;;;25.40;4.65;;;22.70;90.20;;;;;;5031553;28;20036;-53
2023/09/21 10:57:42;;;;;;;34.67;5.68;;;22.70;90.10;;;;;;5031738;28;20041;-52
2023/09/21 11:00:08;;;;;;;38.33;6.88;;;22.70;90.10;;;;;;5038348;28;20141;-52
2023/09/21 11:02:35;;;;;;;32.55;5.88;;;22.80;89.90;;;;;;5050946;28;20097;-52
2023/09/21 11:05:01;;;;;;;37.78;6.70;;;22.90;89.70;;;;;;5028341;28;20089;-52
2023/09/21 11:07:26;;;;;;;38.78;6.03;;;22.90;89.80;;;;;;5047281;28;20018;-52
2023/09/21 11:09:52;;;;;;;31.58;5.82;;;22.90;89.40;;;;;;5030759;28;20083;-52
2023/09/21 11:12:17;;;;;;;32.08;5.57;;;23.00;89.20;;;;;;5041208;28;20033;-52
2023/09/21 11:14:48;;;;;;;48.58;6.63;;;23.00;88.80;;;;;;5048559;28;20084;-52
2023/09/21 11:17:17;;;;;;;26.77;6.00;;;23.10;88.20;;;;;;5047262;28;20083;-52
2023/09/21 11:19:43;;;;;;;45.95;6.90;;;23.10;87.70;;;;;;5045222;28;20056;-52
2023/09/21 11:22:12;;;;;;;57.28;7.90;;;23.10;87.50;;;;;;5044205;28;20093;-52
2023/09/21 11:24:38;;;;;;;78.55;7.82;;;23.20;87.50;;;;;;5054840;28;20089;-52
2023/09/21 11:27:06;;;;;;;42.55;7.68;;;23.30;87.50;;;;;;5045665;28;20032;-53
2023/09/21 11:29:33;;;;;;;54.85;8.13;;;23.20;87.30;;;;;;5042444;28;20480;-52
2023/09/21 11:32:00;;;;;;;61.15;7.53;;;23.20;87.40;;;;;;5021104;28;20025;-52
2023/09/21 11:34:26;;;;;;;39.15;8.50;;;23.30;87.10;;;;;;5024631;28;20041;-52
2023/09/21 11:36:52;;;;;;;53.00;7.68;;;23.40;87.10;;;;;;5024580;28;20022;-52
2023/09/21 11:39:20;;;;;;;63.53;9.40;;;23.50;86.80;;;;;;5005488;28;20265;-52
2023/09/21 11:41:45;;;;;;;66.68;8.30;;;23.50;87.00;;;;;;5004475;28;20037;-52
2023/09/21 11:44:12;;;;;;;57.67;8.52;;;23.50;87.50;;;;;;5037774;28;20022;-52
2023/09/21 11:46:39;;;;;;;73.45;11.13;;;23.50;86.70;;;;;;5022219;28;20535;-52
2023/09/21 11:49:05;;;;;;;55.63;7.82;;;23.60;86.70;;;;;;5022032;28;20029;-52
2023/09/21 11:51:31;;;;;;;57.08;7.78;;;23.60;86.20;;;;;;5020971;28;20045;-52
2023/09/21 11:53:58;;;;;;;58.05;7.55;;;23.60;86.00;;;;;;5021818;28;20487;-52
2023/09/21 11:56:24;;;;;;;52.67;8.13;;;23.70;85.80;;;;;;5021214;28;20033;-52
2023/09/21 11:58:49;;;;;;;64.82;7.93;;;23.60;85.40;;;;;;5020251;28;20025;-52
2023/09/21 12:01:19;;;;;;;54.35;8.02;;;23.70;85.60;;;;;;5022879;28;20033;-52
2023/09/21 12:03:46;;;;;;;61.53;7.97;;;23.70;85.20;;;;;;5021847;28;20018;-53
2023/09/21 12:06:12;;;;;;;34.25;6.28;;;23.80;85.80;;;;;;5024900;28;20517;-52
2023/09/21 12:08:37;;;;;;;40.97;7.00;;;23.80;85.00;;;;;;5025611;28;20026;-52
2023/09/21 12:11:04;;;;;;;55.10;6.80;;;23.80;84.90;;;;;;5024510;28;20493;-52
2023/09/21 12:13:30;;;;;;;87.60;10.98;;;23.90;85.00;;;;;;5008288;28;20053;-52
2023/09/21 12:15:55;;;;;;;65.65;10.88;;;23.80;84.90;;;;;;5022824;28;20191;-53
2023/09/21 12:18:21;;;;;;;74.05;11.65;;;23.80;85.10;;;;;;5023386;28;20045;-52
2023/09/21 12:20:51;;;;;;;79.53;11.45;;;23.90;85.00;;;;;;5024128;28;20053;-53
2023/09/21 12:23:17;;;;;;;79.88;12.85;;;23.90;84.90;;;;;;5025788;28;20067;-52
2023/09/21 12:25:43;;;;;;;92.32;12.05;;;24.00;84.60;;;;;;5024413;28;20460;-52
2023/09/21 12:28:09;;;;;;;89.38;11.23;;;23.90;84.30;;;;;;5023595;28;20432;-52
2023/09/21 12:30:35;;;;;;;93.05;12.10;;;24.00;84.50;;;;;;5024703;28;20026;-52
2023/09/21 12:33:02;;;;;;;102.18;12.68;;;24.00;84.30;;;;;;5024388;28;20052;-52
2023/09/21 12:35:30;;;;;;;102.53;12.93;;;24.00;84.50;;;;;;5008219;28;20050;-52
2023/09/21 12:37:56;;;;;;;68.20;9.75;;;24.00;84.50;;;;;;5020756;28;20041;-52